sensor_id;sensor_type;location;lat;lon;timestamp;P1;durP1;ratioP1;P2;durP2;ratioP2
53903;SDS011;39812;52.430;16.936;2022-11-04T00:01:32;14.85;;;7.90;;
53903;SDS011;39812;52.430;16.936;2022-11-04T00:03:59;16.35;;;8.65;;
53903;SDS011;39812;52.430;16.936;2022-11-04T00:06:24;17.40;;;8.75;;
53903;SDS011;39812;52.430;16.936;2022-11-04T00:08:50;17.40;;;9.10;;
53903;SDS011;39812;52.430;16.936;2022-11-04T00:11:17;22.67;;;9.32;;
53903;SDS011;39812;52.430;16.936;2022-11-04T00:14:04;19.33;;;8.23;;
53903;SDS011;39812;52.430;16.936;2022-11-04T00:16:30;18.52;;;8.45;;
53903;SDS011;39812;52.430;16.936;2022-11-04T00:19:15;16.98;;;8.60;;
53903;SDS011;39812;52.430;16.936;2022-11-04T00:21:40;20.90;;;8.80;;
53903;SDS011;39812;52.430;16.936;2022-11-04T00:24:25;16.20;;;9.13;;
53903;SDS011;39812;52.430;16.936;2022-11-04T00:27:09;17.80;;;9.02;;
53903;SDS011;39812;52.430;16.936;2022-11-04T00:29:57;14.60;;;8.48;;
53903;SDS011;39812;52.430;16.936;2022-11-04T00:32:22;20.48;;;8.88;;
53903;SDS011;39812;52.430;16.936;2022-11-04T00:35:07;18.60;;;8.35;;
53903;SDS011;39812;52.430;16.936;2022-11-04T00:37:37;18.98;;;8.27;;
53903;SDS011;39812;52.430;16.936;2022-11-04T00:40:03;16.08;;;8.32;;
53903;SDS011;39812;52.430;16.936;2022-11-04T00:42:29;19.98;;;8.90;;
53903;SDS011;39812;52.430;16.936;2022-11-04T00:44:55;21.25;;;8.70;;
53903;SDS011;39812;52.430;16.936;2022-11-04T00:47:20;17.60;;;9.23;;
53903;SDS011;39812;52.430;16.936;2022-11-04T00:49:46;21.90;;;9.40;;
53903;SDS011;39812;52.430;16.936;2022-11-04T00:52:11;16.25;;;7.75;;
53903;SDS011;39812;52.430;16.936;2022-11-04T00:54:37;18.88;;;8.48;;
53903;SDS011;39812;52.430;16.936;2022-11-04T00:57:02;19.08;;;8.95;;
53903;SDS011;39812;52.430;16.936;2022-11-04T00:59:28;22.58;;;9.52;;
53903;SDS011;39812;52.430;16.936;2022-11-04T01:01:54;15.73;;;8.35;;
53903;SDS011;39812;52.430;16.936;2022-11-04T01:04:20;19.90;;;9.00;;
53903;SDS011;39812;52.430;16.936;2022-11-04T01:06:45;22.88;;;8.63;;
53903;SDS011;39812;52.430;16.936;2022-11-04T01:09:11;20.80;;;8.95;;
53903;SDS011;39812;52.430;16.936;2022-11-04T01:11:37;17.75;;;8.80;;
53903;SDS011;39812;52.430;16.936;2022-11-04T01:14:02;17.38;;;8.55;;
53903;SDS011;39812;52.430;16.936;2022-11-04T01:16:28;18.23;;;9.23;;
53903;SDS011;39812;52.430;16.936;2022-11-04T01:18:54;16.33;;;8.90;;
53903;SDS011;39812;52.430;16.936;2022-11-04T01:21:19;14.77;;;8.35;;
53903;SDS011;39812;52.430;16.936;2022-11-04T01:23:45;17.92;;;9.32;;
53903;SDS011;39812;52.430;16.936;2022-11-04T01:26:12;18.27;;;8.77;;
53903;SDS011;39812;52.430;16.936;2022-11-04T01:28:42;17.63;;;9.80;;
53903;SDS011;39812;52.430;16.936;2022-11-04T01:31:12;16.35;;;8.65;;
53903;SDS011;39812;52.430;16.936;2022-11-04T01:33:44;17.00;;;7.78;;
53903;SDS011;39812;52.430;16.936;2022-11-04T01:36:10;18.77;;;9.60;;
53903;SDS011;39812;52.430;16.936;2022-11-04T01:38:36;18.15;;;9.50;;
53903;SDS011;39812;52.430;16.936;2022-11-04T01:41:02;18.55;;;9.35;;
53903;SDS011;39812;52.430;16.936;2022-11-04T01:43:44;15.18;;;8.68;;
53903;SDS011;39812;52.430;16.936;2022-11-04T01:49:27;17.30;;;7.55;;
53903;SDS011;39812;52.430;16.936;2022-11-04T01:51:55;21.77;;;9.52;;
53903;SDS011;39812;52.430;16.936;2022-11-04T01:54:25;18.05;;;8.73;;
53903;SDS011;39812;52.430;16.936;2022-11-04T01:56:51;17.13;;;8.85;;
53903;SDS011;39812;52.430;16.936;2022-11-04T01:59:19;16.95;;;8.52;;
53903;SDS011;39812;52.430;16.936;2022-11-04T02:01:48;19.17;;;8.95;;
53903;SDS011;39812;52.430;16.936;2022-11-04T02:04:13;22.60;;;8.32;;
53903;SDS011;39812;52.430;16.936;2022-11-04T02:06:56;20.70;;;8.88;;
53903;SDS011;39812;52.430;16.936;2022-11-04T02:09:24;17.98;;;8.63;;
53903;SDS011;39812;52.430;16.936;2022-11-04T02:11:52;14.77;;;8.57;;
53903;SDS011;39812;52.430;16.936;2022-11-04T02:14:36;16.20;;;8.07;;
53903;SDS011;39812;52.430;16.936;2022-11-04T02:17:10;17.17;;;8.63;;
53903;SDS011;39812;52.430;16.936;2022-11-04T02:23:23;20.42;;;8.95;;
53903;SDS011;39812;52.430;16.936;2022-11-04T02:25:37;16.15;;;8.18;;
53903;SDS011;39812;52.430;16.936;2022-11-04T02:31:30;17.85;;;9.20;;
53903;SDS011;39812;52.430;16.936;2022-11-04T02:34:18;20.05;;;8.52;;
53903;SDS011;39812;52.430;16.936;2022-11-04T02:42:24;17.95;;;9.52;;
53903;SDS011;39812;52.430;16.936;2022-11-04T02:45:13;18.42;;;9.27;;
53903;SDS011;39812;52.430;16.936;2022-11-04T02:47:45;17.70;;;8.90;;
53903;SDS011;39812;52.430;16.936;2022-11-04T02:53:01;14.13;;;8.32;;
53903;SDS011;39812;52.430;16.936;2022-11-04T02:56:03;19.48;;;8.82;;
53903;SDS011;39812;52.430;16.936;2022-11-04T02:58:31;18.23;;;9.00;;
53903;SDS011;39812;52.430;16.936;2022-11-04T03:01:01;18.15;;;9.05;;
53903;SDS011;39812;52.430;16.936;2022-11-04T03:03:30;19.33;;;9.27;;
53903;SDS011;39812;52.430;16.936;2022-11-04T03:06:01;16.80;;;10.07;;
53903;SDS011;39812;52.430;16.936;2022-11-04T03:08:37;22.55;;;9.50;;
53903;SDS011;39812;52.430;16.936;2022-11-04T03:11:10;22.40;;;9.95;;
53903;SDS011;39812;52.430;16.936;2022-11-04T03:16:20;20.73;;;8.82;;
53903;SDS011;39812;52.430;16.936;2022-11-04T03:19:10;21.45;;;9.40;;
53903;SDS011;39812;52.430;16.936;2022-11-04T03:21:52;16.90;;;9.25;;
53903;SDS011;39812;52.430;16.936;2022-11-04T03:24:23;18.17;;;8.93;;
53903;SDS011;39812;52.430;16.936;2022-11-04T03:26:58;17.33;;;8.40;;
53903;SDS011;39812;52.430;16.936;2022-11-04T03:29:51;21.23;;;8.85;;
53903;SDS011;39812;52.430;16.936;2022-11-04T03:35:15;17.70;;;8.52;;
53903;SDS011;39812;52.430;16.936;2022-11-04T03:37:42;20.45;;;10.07;;
53903;SDS011;39812;52.430;16.936;2022-11-04T03:40:08;20.23;;;10.05;;
53903;SDS011;39812;52.430;16.936;2022-11-04T03:42:36;19.98;;;8.80;;
53903;SDS011;39812;52.430;16.936;2022-11-04T03:45:07;21.00;;;9.73;;
53903;SDS011;39812;52.430;16.936;2022-11-04T03:47:33;20.30;;;9.82;;
53903;SDS011;39812;52.430;16.936;2022-11-04T03:50:01;21.38;;;9.27;;
53903;SDS011;39812;52.430;16.936;2022-11-04T03:52:33;21.55;;;10.85;;
53903;SDS011;39812;52.430;16.936;2022-11-04T03:55:00;19.67;;;9.52;;
53903;SDS011;39812;52.430;16.936;2022-11-04T03:57:30;22.83;;;10.57;;
53903;SDS011;39812;52.430;16.936;2022-11-04T04:00:22;17.95;;;10.10;;
53903;SDS011;39812;52.430;16.936;2022-11-04T04:03:03;20.70;;;9.77;;
53903;SDS011;39812;52.430;16.936;2022-11-04T04:05:47;20.77;;;10.07;;
53903;SDS011;39812;52.430;16.936;2022-11-04T04:08:26;21.52;;;10.30;;
53903;SDS011;39812;52.430;16.936;2022-11-04T04:13:43;17.52;;;9.60;;
53903;SDS011;39812;52.430;16.936;2022-11-04T04:16:20;20.90;;;10.35;;
53903;SDS011;39812;52.430;16.936;2022-11-04T04:18:57;20.00;;;9.68;;
53903;SDS011;39812;52.430;16.936;2022-11-04T04:21:40;22.45;;;10.85;;
53903;SDS011;39812;52.430;16.936;2022-11-04T04:24:14;18.83;;;11.10;;
53903;SDS011;39812;52.430;16.936;2022-11-04T04:27:00;20.98;;;9.90;;
53903;SDS011;39812;52.430;16.936;2022-11-04T04:29:45;25.05;;;10.30;;
53903;SDS011;39812;52.430;16.936;2022-11-04T04:32:12;20.20;;;9.63;;
53903;SDS011;39812;52.430;16.936;2022-11-04T04:34:39;26.80;;;10.60;;
53903;SDS011;39812;52.430;16.936;2022-11-04T04:37:16;23.48;;;11.02;;
53903;SDS011;39812;52.430;16.936;2022-11-04T04:39:49;23.08;;;10.70;;
53903;SDS011;39812;52.430;16.936;2022-11-04T04:42:36;21.33;;;10.23;;
53903;SDS011;39812;52.430;16.936;2022-11-04T04:45:22;28.23;;;10.55;;
53903;SDS011;39812;52.430;16.936;2022-11-04T04:47:56;22.85;;;10.80;;
53903;SDS011;39812;52.430;16.936;2022-11-04T04:50:24;21.88;;;10.90;;
53903;SDS011;39812;52.430;16.936;2022-11-04T04:52:53;24.15;;;11.05;;
53903;SDS011;39812;52.430;16.936;2022-11-04T04:55:21;25.90;;;11.80;;
53903;SDS011;39812;52.430;16.936;2022-11-04T04:57:46;23.13;;;11.07;;
53903;SDS011;39812;52.430;16.936;2022-11-04T05:00:14;24.33;;;11.55;;
53903;SDS011;39812;52.430;16.936;2022-11-04T05:02:41;26.42;;;11.10;;
53903;SDS011;39812;52.430;16.936;2022-11-04T05:05:07;27.52;;;11.95;;
53903;SDS011;39812;52.430;16.936;2022-11-04T05:07:33;20.90;;;11.15;;
53903;SDS011;39812;52.430;16.936;2022-11-04T05:09:59;22.02;;;12.02;;
53903;SDS011;39812;52.430;16.936;2022-11-04T05:12:24;22.52;;;12.25;;
53903;SDS011;39812;52.430;16.936;2022-11-04T05:14:50;22.27;;;11.25;;
53903;SDS011;39812;52.430;16.936;2022-11-04T05:17:15;26.60;;;11.73;;
53903;SDS011;39812;52.430;16.936;2022-11-04T05:19:41;25.98;;;11.13;;
53903;SDS011;39812;52.430;16.936;2022-11-04T05:22:07;22.95;;;11.38;;
53903;SDS011;39812;52.430;16.936;2022-11-04T05:24:32;25.58;;;11.48;;
53903;SDS011;39812;52.430;16.936;2022-11-04T05:26:58;25.45;;;11.95;;
53903;SDS011;39812;52.430;16.936;2022-11-04T05:29:23;24.73;;;11.88;;
53903;SDS011;39812;52.430;16.936;2022-11-04T05:31:49;26.67;;;11.38;;
53903;SDS011;39812;52.430;16.936;2022-11-04T05:34:14;18.55;;;11.18;;
53903;SDS011;39812;52.430;16.936;2022-11-04T05:36:40;23.20;;;11.68;;
53903;SDS011;39812;52.430;16.936;2022-11-04T05:39:06;24.17;;;12.43;;
53903;SDS011;39812;52.430;16.936;2022-11-04T05:41:32;24.42;;;12.90;;
53903;SDS011;39812;52.430;16.936;2022-11-04T05:43:59;21.80;;;11.35;;
53903;SDS011;39812;52.430;16.936;2022-11-04T05:46:25;23.45;;;12.15;;
53903;SDS011;39812;52.430;16.936;2022-11-04T05:48:52;24.98;;;11.60;;
53903;SDS011;39812;52.430;16.936;2022-11-04T05:51:18;26.88;;;13.15;;
53903;SDS011;39812;52.430;16.936;2022-11-04T05:53:46;29.23;;;13.23;;
53903;SDS011;39812;52.430;16.936;2022-11-04T05:56:12;25.05;;;12.35;;
53903;SDS011;39812;52.430;16.936;2022-11-04T05:58:37;25.83;;;12.50;;
53903;SDS011;39812;52.430;16.936;2022-11-04T06:03:49;26.13;;;13.30;;
53903;SDS011;39812;52.430;16.936;2022-11-04T06:06:15;28.50;;;13.18;;
53903;SDS011;39812;52.430;16.936;2022-11-04T06:08:41;21.73;;;11.23;;
53903;SDS011;39812;52.430;16.936;2022-11-04T06:11:06;23.75;;;13.27;;
53903;SDS011;39812;52.430;16.936;2022-11-04T06:13:32;27.60;;;11.75;;
53903;SDS011;39812;52.430;16.936;2022-11-04T06:15:57;25.38;;;12.25;;
53903;SDS011;39812;52.430;16.936;2022-11-04T06:18:23;26.08;;;12.90;;
53903;SDS011;39812;52.430;16.936;2022-11-04T06:20:48;22.27;;;12.15;;
53903;SDS011;39812;52.430;16.936;2022-11-04T06:23:13;22.95;;;12.13;;
53903;SDS011;39812;52.430;16.936;2022-11-04T06:25:39;22.65;;;12.35;;
53903;SDS011;39812;52.430;16.936;2022-11-04T06:28:04;23.20;;;12.50;;
53903;SDS011;39812;52.430;16.936;2022-11-04T06:30:30;27.52;;;12.57;;
53903;SDS011;39812;52.430;16.936;2022-11-04T06:32:55;24.30;;;11.95;;
53903;SDS011;39812;52.430;16.936;2022-11-04T06:35:21;34.85;;;13.27;;
53903;SDS011;39812;52.430;16.936;2022-11-04T06:37:47;21.48;;;11.25;;
53903;SDS011;39812;52.430;16.936;2022-11-04T06:40:12;23.08;;;11.20;;
53903;SDS011;39812;52.430;16.936;2022-11-04T06:42:37;26.60;;;12.70;;
53903;SDS011;39812;52.430;16.936;2022-11-04T06:45:03;22.35;;;11.25;;
53903;SDS011;39812;52.430;16.936;2022-11-04T06:47:29;23.00;;;11.75;;
53903;SDS011;39812;52.430;16.936;2022-11-04T06:49:54;22.63;;;12.15;;
53903;SDS011;39812;52.430;16.936;2022-11-04T06:52:20;24.45;;;12.48;;
53903;SDS011;39812;52.430;16.936;2022-11-04T06:54:45;26.73;;;12.02;;
53903;SDS011;39812;52.430;16.936;2022-11-04T06:57:11;24.67;;;11.85;;
53903;SDS011;39812;52.430;16.936;2022-11-04T06:59:37;22.10;;;11.82;;
53903;SDS011;39812;52.430;16.936;2022-11-04T07:02:03;22.95;;;11.38;;
53903;SDS011;39812;52.430;16.936;2022-11-04T07:04:29;27.58;;;12.45;;
53903;SDS011;39812;52.430;16.936;2022-11-04T07:06:54;22.80;;;11.88;;
53903;SDS011;39812;52.430;16.936;2022-11-04T07:09:20;23.35;;;11.25;;
53903;SDS011;39812;52.430;16.936;2022-11-04T07:11:45;22.50;;;11.82;;
53903;SDS011;39812;52.430;16.936;2022-11-04T07:14:11;28.08;;;12.10;;
53903;SDS011;39812;52.430;16.936;2022-11-04T07:16:37;23.90;;;11.90;;
53903;SDS011;39812;52.430;16.936;2022-11-04T07:19:03;28.55;;;12.32;;
53903;SDS011;39812;52.430;16.936;2022-11-04T07:21:29;32.80;;;12.75;;
53903;SDS011;39812;52.430;16.936;2022-11-04T07:23:55;24.75;;;11.23;;
53903;SDS011;39812;52.430;16.936;2022-11-04T07:26:21;27.60;;;12.10;;
53903;SDS011;39812;52.430;16.936;2022-11-04T07:28:47;21.77;;;12.45;;
53903;SDS011;39812;52.430;16.936;2022-11-04T07:31:12;23.33;;;11.00;;
53903;SDS011;39812;52.430;16.936;2022-11-04T07:33:38;25.02;;;11.70;;
53903;SDS011;39812;52.430;16.936;2022-11-04T07:36:04;20.05;;;10.75;;
53903;SDS011;39812;52.430;16.936;2022-11-04T07:38:31;23.52;;;10.05;;
53903;SDS011;39812;52.430;16.936;2022-11-04T07:40:57;23.02;;;11.02;;
53903;SDS011;39812;52.430;16.936;2022-11-04T07:43:23;25.60;;;11.93;;
53903;SDS011;39812;52.430;16.936;2022-11-04T07:46:02;22.33;;;11.18;;
53903;SDS011;39812;52.430;16.936;2022-11-04T07:48:33;25.23;;;11.23;;
53903;SDS011;39812;52.430;16.936;2022-11-04T07:51:00;18.02;;;9.90;;
53903;SDS011;39812;52.430;16.936;2022-11-04T07:53:27;22.17;;;10.88;;
53903;SDS011;39812;52.430;16.936;2022-11-04T07:55:53;25.25;;;11.63;;
53903;SDS011;39812;52.430;16.936;2022-11-04T07:58:19;26.20;;;10.88;;
53903;SDS011;39812;52.430;16.936;2022-11-04T08:00:45;21.60;;;11.60;;
53903;SDS011;39812;52.430;16.936;2022-11-04T08:03:10;27.20;;;11.73;;
53903;SDS011;39812;52.430;16.936;2022-11-04T08:05:36;25.85;;;11.35;;
53903;SDS011;39812;52.430;16.936;2022-11-04T08:08:02;25.80;;;11.57;;
53903;SDS011;39812;52.430;16.936;2022-11-04T08:10:28;20.48;;;11.43;;
53903;SDS011;39812;52.430;16.936;2022-11-04T08:12:54;21.90;;;11.27;;
53903;SDS011;39812;52.430;16.936;2022-11-04T08:15:19;23.10;;;11.73;;
53903;SDS011;39812;52.430;16.936;2022-11-04T08:17:45;21.80;;;10.65;;
53903;SDS011;39812;52.430;16.936;2022-11-04T08:20:10;22.67;;;10.63;;
53903;SDS011;39812;52.430;16.936;2022-11-04T08:22:36;24.92;;;11.57;;
53903;SDS011;39812;52.430;16.936;2022-11-04T08:25:01;23.88;;;11.43;;
53903;SDS011;39812;52.430;16.936;2022-11-04T08:27:28;25.88;;;12.57;;
53903;SDS011;39812;52.430;16.936;2022-11-04T08:29:54;20.70;;;11.32;;
53903;SDS011;39812;52.430;16.936;2022-11-04T08:32:20;24.42;;;11.82;;
53903;SDS011;39812;52.430;16.936;2022-11-04T08:34:45;23.27;;;11.32;;
53903;SDS011;39812;52.430;16.936;2022-11-04T08:37:14;19.02;;;10.43;;
53903;SDS011;39812;52.430;16.936;2022-11-04T08:39:40;25.85;;;12.18;;
53903;SDS011;39812;52.430;16.936;2022-11-04T08:42:06;20.25;;;11.25;;
53903;SDS011;39812;52.430;16.936;2022-11-04T08:44:32;21.55;;;11.65;;
53903;SDS011;39812;52.430;16.936;2022-11-04T08:46:58;20.70;;;11.68;;
53903;SDS011;39812;52.430;16.936;2022-11-04T08:49:24;20.13;;;11.15;;
53903;SDS011;39812;52.430;16.936;2022-11-04T08:51:50;19.92;;;10.45;;
53903;SDS011;39812;52.430;16.936;2022-11-04T08:54:21;20.73;;;10.95;;
53903;SDS011;39812;52.430;16.936;2022-11-04T08:56:48;24.65;;;11.55;;
53903;SDS011;39812;52.430;16.936;2022-11-04T08:59:13;19.73;;;10.75;;
53903;SDS011;39812;52.430;16.936;2022-11-04T09:01:39;23.70;;;11.27;;
53903;SDS011;39812;52.430;16.936;2022-11-04T09:04:06;18.52;;;10.25;;
53903;SDS011;39812;52.430;16.936;2022-11-04T09:06:36;24.08;;;10.57;;
53903;SDS011;39812;52.430;16.936;2022-11-04T09:09:05;20.17;;;11.05;;
53903;SDS011;39812;52.430;16.936;2022-11-04T09:11:32;21.38;;;10.63;;
53903;SDS011;39812;52.430;16.936;2022-11-04T09:14:01;21.98;;;10.85;;
53903;SDS011;39812;52.430;16.936;2022-11-04T09:16:28;24.75;;;11.43;;
53903;SDS011;39812;52.430;16.936;2022-11-04T09:18:55;19.60;;;11.02;;
53903;SDS011;39812;52.430;16.936;2022-11-04T09:21:24;23.33;;;10.98;;
53903;SDS011;39812;52.430;16.936;2022-11-04T09:23:51;24.13;;;11.48;;
53903;SDS011;39812;52.430;16.936;2022-11-04T09:26:17;19.65;;;11.32;;
53903;SDS011;39812;52.430;16.936;2022-11-04T09:28:43;22.02;;;11.32;;
53903;SDS011;39812;52.430;16.936;2022-11-04T09:31:10;23.75;;;11.90;;
53903;SDS011;39812;52.430;16.936;2022-11-04T09:33:37;24.33;;;11.57;;
53903;SDS011;39812;52.430;16.936;2022-11-04T09:36:03;25.42;;;11.57;;
53903;SDS011;39812;52.430;16.936;2022-11-04T09:38:29;20.15;;;10.82;;
53903;SDS011;39812;52.430;16.936;2022-11-04T09:40:54;20.48;;;10.65;;
53903;SDS011;39812;52.430;16.936;2022-11-04T09:43:27;23.67;;;11.40;;
53903;SDS011;39812;52.430;16.936;2022-11-04T09:46:04;24.85;;;12.30;;
53903;SDS011;39812;52.430;16.936;2022-11-04T09:48:35;24.67;;;11.65;;
53903;SDS011;39812;52.430;16.936;2022-11-04T09:51:08;23.80;;;11.88;;
53903;SDS011;39812;52.430;16.936;2022-11-04T09:56:12;18.45;;;11.43;;
53903;SDS011;39812;52.430;16.936;2022-11-04T09:58:39;20.52;;;12.02;;
53903;SDS011;39812;52.430;16.936;2022-11-04T10:01:11;19.95;;;10.57;;
53903;SDS011;39812;52.430;16.936;2022-11-04T10:03:47;22.67;;;11.13;;
53903;SDS011;39812;52.430;16.936;2022-11-04T10:09:44;51.40;;;24.45;;
53903;SDS011;39812;52.430;16.936;2022-11-04T10:15:27;24.25;;;11.85;;
53903;SDS011;39812;52.430;16.936;2022-11-04T10:21:02;22.60;;;10.48;;
53903;SDS011;39812;52.430;16.936;2022-11-04T10:26:49;31.83;;;12.45;;
53903;SDS011;39812;52.430;16.936;2022-11-04T10:29:04;24.67;;;10.35;;
53903;SDS011;39812;52.430;16.936;2022-11-04T10:31:33;21.67;;;10.85;;
53903;SDS011;39812;52.430;16.936;2022-11-04T10:34:05;18.35;;;10.50;;
53903;SDS011;39812;52.430;16.936;2022-11-04T10:36:39;20.88;;;10.10;;
53903;SDS011;39812;52.430;16.936;2022-11-04T10:39:12;22.33;;;10.60;;
53903;SDS011;39812;52.430;16.936;2022-11-04T10:41:44;25.80;;;10.90;;
53903;SDS011;39812;52.430;16.936;2022-11-04T10:44:15;21.27;;;10.45;;
53903;SDS011;39812;52.430;16.936;2022-11-04T10:52:08;22.02;;;10.95;;
53903;SDS011;39812;52.430;16.936;2022-11-04T10:54:38;22.65;;;12.13;;
53903;SDS011;39812;52.430;16.936;2022-11-04T10:57:06;22.15;;;10.98;;
53903;SDS011;39812;52.430;16.936;2022-11-04T10:59:41;18.75;;;10.10;;
53903;SDS011;39812;52.430;16.936;2022-11-04T11:05:11;21.42;;;10.23;;
53903;SDS011;39812;52.430;16.936;2022-11-04T11:07:38;19.30;;;10.27;;
53903;SDS011;39812;52.430;16.936;2022-11-04T11:10:04;21.67;;;10.18;;
53903;SDS011;39812;52.430;16.936;2022-11-04T11:12:31;22.02;;;10.38;;
53903;SDS011;39812;52.430;16.936;2022-11-04T11:15:38;17.35;;;9.75;;
53903;SDS011;39812;52.430;16.936;2022-11-04T11:20:39;20.30;;;10.25;;
53903;SDS011;39812;52.430;16.936;2022-11-04T11:23:31;23.52;;;10.70;;
53903;SDS011;39812;52.430;16.936;2022-11-04T11:26:00;18.42;;;9.40;;
53903;SDS011;39812;52.430;16.936;2022-11-04T11:28:27;20.40;;;10.65;;
53903;SDS011;39812;52.430;16.936;2022-11-04T11:30:56;18.13;;;10.40;;
53903;SDS011;39812;52.430;16.936;2022-11-04T11:33:33;21.75;;;10.52;;
53903;SDS011;39812;52.430;16.936;2022-11-04T11:38:52;18.90;;;9.48;;
53903;SDS011;39812;52.430;16.936;2022-11-04T11:41:27;21.85;;;10.82;;
53903;SDS011;39812;52.430;16.936;2022-11-04T11:44:16;20.55;;;10.50;;
53903;SDS011;39812;52.430;16.936;2022-11-04T11:46:49;22.05;;;10.98;;
53903;SDS011;39812;52.430;16.936;2022-11-04T11:49:25;22.50;;;10.90;;
53903;SDS011;39812;52.430;16.936;2022-11-04T11:51:54;23.75;;;10.70;;
53903;SDS011;39812;52.430;16.936;2022-11-04T11:54:28;22.50;;;10.02;;
53903;SDS011;39812;52.430;16.936;2022-11-04T11:56:58;19.88;;;10.60;;
53903;SDS011;39812;52.430;16.936;2022-11-04T11:59:44;19.67;;;9.68;;
53903;SDS011;39812;52.430;16.936;2022-11-04T12:02:23;22.85;;;11.45;;
53903;SDS011;39812;52.430;16.936;2022-11-04T12:04:51;22.42;;;11.00;;
53903;SDS011;39812;52.430;16.936;2022-11-04T12:07:30;20.58;;;10.18;;
53903;SDS011;39812;52.430;16.936;2022-11-04T12:15:44;18.75;;;9.52;;
53903;SDS011;39812;52.430;16.936;2022-11-04T12:21:31;22.20;;;10.95;;
53903;SDS011;39812;52.430;16.936;2022-11-04T12:24:37;18.42;;;9.93;;
53903;SDS011;39812;52.430;16.936;2022-11-04T12:27:19;21.27;;;10.77;;
53903;SDS011;39812;52.430;16.936;2022-11-04T12:30:10;19.77;;;10.45;;
53903;SDS011;39812;52.430;16.936;2022-11-04T12:38:30;20.35;;;10.88;;
53903;SDS011;39812;52.430;16.936;2022-11-04T12:41:17;25.70;;;12.20;;
53903;SDS011;39812;52.430;16.936;2022-11-04T12:44:11;25.27;;;11.23;;
53903;SDS011;39812;52.430;16.936;2022-11-04T12:46:52;23.98;;;11.23;;
53903;SDS011;39812;52.430;16.936;2022-11-04T12:49:33;22.45;;;11.77;;
53903;SDS011;39812;52.430;16.936;2022-11-04T12:55:40;21.23;;;11.23;;
53903;SDS011;39812;52.430;16.936;2022-11-04T12:58:22;22.73;;;10.30;;
53903;SDS011;39812;52.430;16.936;2022-11-04T13:01:04;26.35;;;12.20;;
53903;SDS011;39812;52.430;16.936;2022-11-04T13:03:35;24.52;;;12.25;;
53903;SDS011;39812;52.430;16.936;2022-11-04T13:06:22;22.20;;;12.10;;
53903;SDS011;39812;52.430;16.936;2022-11-04T13:09:08;25.02;;;13.52;;
53903;SDS011;39812;52.430;16.936;2022-11-04T13:11:42;22.23;;;11.32;;
53903;SDS011;39812;52.430;16.936;2022-11-04T13:14:15;23.08;;;11.63;;
53903;SDS011;39812;52.430;16.936;2022-11-04T13:16:47;26.58;;;12.30;;
53903;SDS011;39812;52.430;16.936;2022-11-04T13:22:08;24.73;;;12.18;;
53903;SDS011;39812;52.430;16.936;2022-11-04T13:24:38;31.17;;;13.35;;
53903;SDS011;39812;52.430;16.936;2022-11-04T13:27:16;23.48;;;12.38;;
53903;SDS011;39812;52.430;16.936;2022-11-04T13:29:45;27.15;;;13.98;;
53903;SDS011;39812;52.430;16.936;2022-11-04T13:32:25;26.83;;;13.13;;
53903;SDS011;39812;52.430;16.936;2022-11-04T13:35:03;26.63;;;13.82;;
53903;SDS011;39812;52.430;16.936;2022-11-04T13:37:39;25.08;;;13.35;;
53903;SDS011;39812;52.430;16.936;2022-11-04T13:40:16;27.00;;;13.30;;
53903;SDS011;39812;52.430;16.936;2022-11-04T13:42:54;31.23;;;14.85;;
53903;SDS011;39812;52.430;16.936;2022-11-04T13:45:56;24.25;;;13.70;;
53903;SDS011;39812;52.430;16.936;2022-11-04T13:48:22;32.22;;;14.95;;
53903;SDS011;39812;52.430;16.936;2022-11-04T13:51:15;28.08;;;14.15;;
53903;SDS011;39812;52.430;16.936;2022-11-04T13:53:51;33.50;;;15.63;;
53903;SDS011;39812;52.430;16.936;2022-11-04T13:56:32;28.92;;;15.90;;
53903;SDS011;39812;52.430;16.936;2022-11-04T14:01:47;27.48;;;14.93;;
53903;SDS011;39812;52.430;16.936;2022-11-04T14:06:51;30.63;;;15.85;;
53903;SDS011;39812;52.430;16.936;2022-11-04T14:14:38;29.00;;;16.88;;
53903;SDS011;39812;52.430;16.936;2022-11-04T14:19:58;28.55;;;16.05;;
53903;SDS011;39812;52.430;16.936;2022-11-04T14:25:18;35.15;;;17.02;;
53903;SDS011;39812;52.430;16.936;2022-11-04T14:28:15;39.03;;;19.05;;
53903;SDS011;39812;52.430;16.936;2022-11-04T14:33:20;38.25;;;19.52;;
53903;SDS011;39812;52.430;16.936;2022-11-04T14:36:11;40.65;;;20.55;;
53903;SDS011;39812;52.430;16.936;2022-11-04T14:38:40;39.42;;;19.80;;
53903;SDS011;39812;52.430;16.936;2022-11-04T14:41:14;35.63;;;18.42;;
53903;SDS011;39812;52.430;16.936;2022-11-04T14:43:46;43.30;;;19.02;;
53903;SDS011;39812;52.430;16.936;2022-11-04T14:46:23;36.83;;;19.40;;
53903;SDS011;39812;52.430;16.936;2022-11-04T14:48:53;34.97;;;18.83;;
53903;SDS011;39812;52.430;16.936;2022-11-04T14:51:22;35.50;;;17.23;;
53903;SDS011;39812;52.430;16.936;2022-11-04T14:53:51;36.53;;;18.50;;
53903;SDS011;39812;52.430;16.936;2022-11-04T14:56:23;36.60;;;19.00;;
53903;SDS011;39812;52.430;16.936;2022-11-04T14:58:59;34.63;;;17.40;;
53903;SDS011;39812;52.430;16.936;2022-11-04T15:01:25;39.88;;;19.20;;
53903;SDS011;39812;52.430;16.936;2022-11-04T15:03:53;34.90;;;19.10;;
53903;SDS011;39812;52.430;16.936;2022-11-04T15:06:24;31.45;;;16.50;;
53903;SDS011;39812;52.430;16.936;2022-11-04T15:08:52;29.48;;;16.20;;
53903;SDS011;39812;52.430;16.936;2022-11-04T15:11:20;31.13;;;16.60;;
53903;SDS011;39812;52.430;16.936;2022-11-04T15:14:20;29.88;;;17.00;;
53903;SDS011;39812;52.430;16.936;2022-11-04T15:16:49;35.17;;;16.92;;
53903;SDS011;39812;52.430;16.936;2022-11-04T15:19:19;32.33;;;16.98;;
53903;SDS011;39812;52.430;16.936;2022-11-04T15:21:53;34.70;;;17.70;;
53903;SDS011;39812;52.430;16.936;2022-11-04T15:24:19;34.20;;;16.75;;
53903;SDS011;39812;52.430;16.936;2022-11-04T15:26:48;31.83;;;16.92;;
53903;SDS011;39812;52.430;16.936;2022-11-04T15:29:16;35.08;;;18.05;;
53903;SDS011;39812;52.430;16.936;2022-11-04T15:31:51;33.33;;;17.13;;
53903;SDS011;39812;52.430;16.936;2022-11-04T15:34:23;38.22;;;19.38;;
53903;SDS011;39812;52.430;16.936;2022-11-04T15:36:50;32.95;;;17.20;;
53903;SDS011;39812;52.430;16.936;2022-11-04T15:39:28;33.88;;;17.83;;
53903;SDS011;39812;52.430;16.936;2022-11-04T15:41:57;32.33;;;17.10;;
53903;SDS011;39812;52.430;16.936;2022-11-04T15:44:46;36.75;;;16.42;;
53903;SDS011;39812;52.430;16.936;2022-11-04T15:49:43;36.88;;;16.65;;
53903;SDS011;39812;52.430;16.936;2022-11-04T15:52:11;37.92;;;17.95;;
53903;SDS011;39812;52.430;16.936;2022-11-04T15:54:42;32.22;;;16.80;;
53903;SDS011;39812;52.430;16.936;2022-11-04T15:57:18;32.67;;;16.60;;
53903;SDS011;39812;52.430;16.936;2022-11-04T15:59:45;31.73;;;16.88;;
53903;SDS011;39812;52.430;16.936;2022-11-04T16:02:23;31.08;;;15.65;;
53903;SDS011;39812;52.430;16.936;2022-11-04T16:05:01;33.90;;;16.88;;
53903;SDS011;39812;52.430;16.936;2022-11-04T16:07:36;36.25;;;17.13;;
53903;SDS011;39812;52.430;16.936;2022-11-04T16:10:29;31.17;;;16.90;;
53903;SDS011;39812;52.430;16.936;2022-11-04T16:12:57;33.80;;;17.45;;
53903;SDS011;39812;52.430;16.936;2022-11-04T16:15:35;32.60;;;16.58;;